Durango, CO (81301)

4:31 AM MST on February 10, 2016 (GMT -0700)
Falls Creek Ranch | | Change Station
CLOSE
Current Station
Personal Weather Station
Location: Durango, CO
Elevation: 7560 ft
Nearby Weather Stations

Elev 7560 ft 37.29 °N, 107.87 °W | Updated 1 minute ago

Clear
Clear
29.8 °F
Feels Like 30 °F
N
0.0
Wind Variable Wind from WNW
Gusts 1.0 mph

Today
High -- | Low -- °F
--% Chance of Precip.
Yesterday
High -- | Low -- °F
Precip. -- in
Pressure 30.55 in
Visibility 10.0 miles
Clouds Clear
Windchill 30 °F
Dew Point 11 °F
Humidity 45%
Rainfall 0.00 in
Snow Depth Not available.
7:06 AM 5:45 PM
Waxing Crescent, 5% visible
METAR KDRO 101053Z AUTO 00000KT 10SM CLR M11/M13 A3043 RMK AO2 SLP345 T11061128
Pressure 30.55 in
Visibility 10.0 miles
Clouds Clear
Windchill 30 °F
Dew Point 11 °F
Humidity 45%
Rainfall 0.00 in
Snow Depth Not available.
7:06 AM 5:45 PM
Waxing Crescent, 5% visible
METAR KDRO 101053Z AUTO 00000KT 10SM CLR M11/M13 A3043 RMK AO2 SLP345 T11061128

10-Day Weather Forecast

Almanac

Astronomy

Feb. 10, 2016 Rise Set
Actual Time
Civil Twilight
Nautical Twilight
Astronomical Twilight
Moon
Length of Visible Light
Length of Day
Tomorrow will be .
, % of the Moon is Illuminated

Today's Extremes

State Highs State Lows

Community

WunderPhotos

Upload Photos

1,891,830 photos uploaded!

WunderBlog® & News

Nearby

Air Quality

  Air Quality AQ Index Pollutant
Not available.

Snow Depth

Station Depth Elevation

Earthquake Activity

City Distance Mag. Time & Date
Minimum magnitude displayed is 2.5.

Coastal Water Temperatures

Place Temperature

Stations

Nearby Weather Stations

Station Location Temp. Windchill Dew Point Humidity Wind Precip. Elev Updated Type
                   

Watches & Warnings

There are currently no watches in effect.